Time;durP1;ratioP1;P1;durP2;ratioP2;P2;SDS_P1;SDS_P2;PMS_P1;PMS_P2;Temp;Humidity;BMP_temperature;BMP_pressure;BME280_temperature;BME280_humidity;BME280_pressure;Samples;Min_cycle;Max_cycle;Signal;HPM_P1;HPM_P2
2022/04/03 00:01:31;;;;;;;4.87;2.83;;;;;;;;;;4970412;28;20207;-75
2022/04/03 00:03:57;;;;;;;5.80;3.40;;;;;;;;;;4955797;28;20549;-78
2022/04/03 00:06:23;;;;;;;6.00;3.70;;;;;;;;;;4955981;28;20716;-77
2022/04/03 00:08:50;;;;;;;3.47;3.17;;;;;;;;;;4955721;28;20408;-76
2022/04/03 00:11:16;;;;;;;5.47;3.40;;;;;;;;;;4955441;28;20205;-77
2022/04/03 00:13:42;;;;;;;4.63;2.85;;;;;;;;;;4955938;28;20190;-77
2022/04/03 00:16:08;;;;;;;4.07;3.23;;;;;;;;;;4955475;28;20193;-79
2022/04/03 00:18:34;;;;;;;4.05;3.03;;;;;;;;;;4955617;28;20429;-76
2022/04/03 00:21:00;;;;;;;4.63;3.50;;;;;;;;;;4955220;28;20284;-76
2022/04/03 00:23:27;;;;;;;4.25;3.00;;;;;;;;;;4955331;28;20190;-75
2022/04/03 00:25:53;;;;;;;4.15;3.15;;;;;;;;;;4955579;28;20178;-77
2022/04/03 00:28:19;;;;;;;4.38;3.35;;;;;;;;;;4955576;28;20690;-77
2022/04/03 00:30:46;;;;;;;4.65;3.22;;;;;;;;;;4954974;28;20190;-77
2022/04/03 00:33:12;;;;;;;3.78;2.75;;;;;;;;;;4955526;28;20207;-76
2022/04/03 00:35:38;;;;;;;5.55;3.40;;;;;;;;;;4955487;28;20654;-76
2022/04/03 00:38:04;;;;;;;4.10;3.55;;;;;;;;;;4955372;28;20632;-76
2022/04/03 00:40:31;;;;;;;7.90;3.53;;;;;;;;;;4955215;28;20640;-75
2022/04/03 00:42:57;;;;;;;4.10;2.90;;;;;;;;;;4955272;28;20199;-75
2022/04/03 00:45:23;;;;;;;7.95;3.63;;;;;;;;;;4970145;28;20700;-75
2022/04/03 00:47:51;;;;;;;4.82;3.40;;;;;;;;;;4955350;28;20190;-77
2022/04/03 00:50:17;;;;;;;6.07;3.60;;;;;;;;;;4955089;28;20175;-76
2022/04/03 00:52:44;;;;;;;3.38;2.80;;;;;;;;;;4955122;28;20600;-75
2022/04/03 00:55:10;;;;;;;4.97;3.33;;;;;;;;;;4969993;28;20186;-75
2022/04/03 00:57:36;;;;;;;3.50;3.10;;;;;;;;;;4955222;28;20273;-75
2022/04/03 01:00:03;;;;;;;4.63;3.15;;;;;;;;;;4970052;28;20186;-75
2022/04/03 01:02:30;;;;;;;6.47;3.17;;;;;;;;;;4954878;28;20234;-75
2022/04/03 01:04:57;;;;;;;4.97;2.83;;;;;;;;;;4953870;29;20215;-75
2022/04/03 01:07:23;;;;;;;5.45;3.40;;;;;;;;;;4954976;28;20214;-78
2022/04/03 01:09:49;;;;;;;6.50;3.10;;;;;;;;;;4955280;28;20183;-76
2022/04/03 01:12:15;;;;;;;5.10;3.30;;;;;;;;;;4954833;28;20205;-74
2022/04/03 01:14:42;;;;;;;3.13;2.70;;;;;;;;;;4970030;28;20923;-75
2022/04/03 01:17:10;;;;;;;6.45;3.80;;;;;;;;;;4954979;28;20190;-75
2022/04/03 01:19:37;;;;;;;3.90;3.30;;;;;;;;;;4955010;28;20621;-76
2022/04/03 01:22:03;;;;;;;5.03;3.60;;;;;;;;;;4954630;28;20210;-75
2022/04/03 01:24:30;;;;;;;2.97;2.60;;;;;;;;;;4954904;28;20208;-76
2022/04/03 01:26:56;;;;;;;5.30;3.10;;;;;;;;;;4954892;28;20549;-78
2022/04/03 01:29:23;;;;;;;4.28;3.58;;;;;;;;;;4957258;28;20228;-75
2022/04/03 01:31:50;;;;;;;5.13;2.75;;;;;;;;;;4958359;28;20193;-76
2022/04/03 01:34:16;;;;;;;4.07;2.80;;;;;;;;;;4958697;28;20653;-77
2022/04/03 01:36:42;;;;;;;5.00;3.70;;;;;;;;;;4959041;28;20190;-75
2022/04/03 01:39:11;;;;;;;4.88;3.67;;;;;;;;;;4958621;28;20189;-79
2022/04/03 01:41:40;;;;;;;6.13;3.33;;;;;;;;;;4958176;28;20199;-76
2022/04/03 01:44:07;;;;;;;4.00;2.90;;;;;;;;;;4958522;28;20203;-76
2022/04/03 01:46:33;;;;;;;3.50;2.70;;;;;;;;;;4958544;28;20710;-77
2022/04/03 01:48:59;;;;;;;4.85;3.30;;;;;;;;;;4958509;28;20535;-75
2022/04/03 01:51:25;;;;;;;6.32;3.50;;;;;;;;;;4957824;28;20209;-78
2022/04/03 01:53:51;;;;;;;4.95;3.38;;;;;;;;;;4958365;28;20186;-75
2022/04/03 01:56:17;;;;;;;4.07;3.30;;;;;;;;;;4973116;28;20624;-77
2022/04/03 01:58:43;;;;;;;2.77;2.50;;;;;;;;;;4958238;28;20431;-75
2022/04/03 02:01:09;;;;;;;3.37;3.07;;;;;;;;;;4958156;28;20454;-74
2022/04/03 02:03:35;;;;;;;5.30;3.15;;;;;;;;;;4958447;28;20593;-78
2022/04/03 02:06:01;;;;;;;4.43;3.20;;;;;;;;;;4957666;29;20290;-74
2022/04/03 02:08:30;;;;;;;4.93;3.57;;;;;;;;;;4973160;28;20423;-79
2022/04/03 02:10:56;;;;;;;3.42;3.13;;;;;;;;;;4957780;28;20443;-74
2022/04/03 02:13:22;;;;;;;3.70;3.40;;;;;;;;;;4957900;28;20179;-79
2022/04/03 02:15:48;;;;;;;5.70;3.80;;;;;;;;;;4972895;28;20654;-78
2022/04/03 02:18:14;;;;;;;5.55;2.90;;;;;;;;;;4957892;28;20414;-79
2022/04/03 02:20:40;;;;;;;6.30;3.47;;;;;;;;;;4957643;28;20182;-78
2022/04/03 02:23:06;;;;;;;4.78;2.78;;;;;;;;;;4957835;28;20784;-79
2022/04/03 02:25:32;;;;;;;5.30;3.75;;;;;;;;;;4957534;28;20270;-78
2022/04/03 02:27:59;;;;;;;3.38;3.08;;;;;;;;;;4957655;28;20201;-75
2022/04/03 02:30:25;;;;;;;3.78;3.03;;;;;;;;;;4957368;28;20178;-76
2022/04/03 02:32:51;;;;;;;7.57;4.30;;;;;;;;;;4957554;28;20211;-76
2022/04/03 02:35:17;;;;;;;4.88;3.42;;;;;;;;;;4957707;28;20193;-75
2022/04/03 02:37:44;;;;;;;5.28;3.60;;;;;;;;;;4957592;28;20179;-77
2022/04/03 02:40:11;;;;;;;4.32;3.22;;;;;;;;;;4956831;28;20198;-77
2022/04/03 02:42:37;;;;;;;4.53;3.72;;;;;;;;;;4957368;28;20220;-77
2022/04/03 02:45:05;;;;;;;6.15;3.42;;;;;;;;;;4957349;28;20206;-77
2022/04/03 02:47:31;;;;;;;4.03;2.97;;;;;;;;;;4957456;28;20252;-76
2022/04/03 02:49:57;;;;;;;6.07;3.70;;;;;;;;;;4957468;28;20175;-76
2022/04/03 02:52:23;;;;;;;8.60;4.50;;;;;;;;;;4956778;28;20222;-77
2022/04/03 02:54:49;;;;;;;4.70;3.40;;;;;;;;;;4957277;28;20783;-74
2022/04/03 02:57:16;;;;;;;6.13;3.72;;;;;;;;;;4957313;28;20522;-75
2022/04/03 02:59:42;;;;;;;5.38;4.03;;;;;;;;;;4957303;28;20185;-76
2022/04/03 03:02:08;;;;;;;7.90;4.00;;;;;;;;;;4956711;28;20216;-77
2022/04/03 03:04:37;;;;;;;4.90;4.10;;;;;;;;;;4957117;28;20259;-77
2022/04/03 03:07:04;;;;;;;8.32;5.05;;;;;;;;;;4955949;29;20201;-75
2022/04/03 03:09:30;;;;;;;7.95;4.40;;;;;;;;;;4956877;28;20254;-76
2022/04/03 03:11:56;;;;;;;7.15;4.38;;;;;;;;;;4956539;28;20203;-78
2022/04/03 03:14:22;;;;;;;5.63;4.15;;;;;;;;;;4956881;28;20179;-77
2022/04/03 03:16:48;;;;;;;8.93;4.50;;;;;;;;;;4957014;28;20641;-76
2022/04/03 03:19:15;;;;;;;6.72;4.25;;;;;;;;;;4956941;28;20257;-74
2022/04/03 03:21:41;;;;;;;6.95;4.60;;;;;;;;;;4956407;28;20198;-76
2022/04/03 03:24:07;;;;;;;6.60;4.25;;;;;;;;;;4971453;28;20720;-77
2022/04/03 03:26:33;;;;;;;9.98;4.95;;;;;;;;;;4956710;28;20210;-77
2022/04/03 03:28:59;;;;;;;7.68;5.13;;;;;;;;;;4956693;28;20290;-75
2022/04/03 03:31:25;;;;;;;10.73;4.83;;;;;;;;;;4956246;28;20279;-77
2022/04/03 03:33:51;;;;;;;10.48;4.60;;;;;;;;;;4956580;28;20795;-75
2022/04/03 03:36:17;;;;;;;8.30;5.13;;;;;;;;;;4956349;28;20185;-78
2022/04/03 03:38:43;;;;;;;8.70;5.20;;;;;;;;;;4956685;28;20633;-75
2022/04/03 03:41:09;;;;;;;10.82;4.65;;;;;;;;;;4956155;28;20250;-75
2022/04/03 03:43:35;;;;;;;5.45;4.30;;;;;;;;;;4956553;28;20190;-76
2022/04/03 03:46:02;;;;;;;8.38;4.57;;;;;;;;;;4956445;28;20170;-76
2022/04/03 03:48:28;;;;;;;4.60;3.70;;;;;;;;;;4956327;28;20598;-79
2022/04/03 03:50:54;;;;;;;6.47;3.80;;;;;;;;;;4955356;28;20281;-77
2022/04/03 03:53:20;;;;;;;8.97;4.70;;;;;;;;;;4971051;28;20853;-79
2022/04/03 03:55:46;;;;;;;6.03;4.07;;;;;;;;;;4956162;28;20428;-77
2022/04/03 03:58:12;;;;;;;6.53;4.07;;;;;;;;;;4970927;28;20180;-78
2022/04/03 04:00:38;;;;;;;7.78;3.78;;;;;;;;;;4955656;28;20270;-78
2022/04/03 04:03:04;;;;;;;6.50;4.23;;;;;;;;;;4956207;28;20178;-76
2022/04/03 04:05:30;;;;;;;7.20;4.82;;;;;;;;;;4956115;28;20542;-77
2022/04/03 04:07:56;;;;;;;9.43;5.28;;;;;;;;;;4956089;28;20174;-77
2022/04/03 04:10:22;;;;;;;8.90;4.65;;;;;;;;;;4955699;28;20175;-77
2022/04/03 04:12:49;;;;;;;5.95;3.97;;;;;;;;;;4955984;28;20536;-77
2022/04/03 04:15:16;;;;;;;10.48;5.45;;;;;;;;;;4955939;28;20181;-76
2022/04/03 04:17:43;;;;;;;9.35;4.70;;;;;;;;;;4955993;28;20189;-77
2022/04/03 04:20:12;;;;;;;6.05;4.25;;;;;;;;;;4955750;28;20182;-75
2022/04/03 04:22:39;;;;;;;18.38;4.32;;;;;;;;;;4970297;28;20286;-79
2022/04/03 04:25:05;;;;;;;6.30;5.28;;;;;;;;;;4955635;28;20210;-75
2022/04/03 04:27:31;;;;;;;8.05;3.53;;;;;;;;;;4955557;28;20178;-76
2022/04/03 04:29:57;;;;;;;8.30;3.67;;;;;;;;;;4955575;28;20264;-81
2022/04/03 04:32:24;;;;;;;12.07;5.07;;;;;;;;;;4954997;28;20635;-77
2022/04/03 04:34:50;;;;;;;7.70;4.78;;;;;;;;;;4955398;28;20647;-78
2022/04/03 04:37:16;;;;;;;9.20;4.40;;;;;;;;;;4955660;28;20186;-76
2022/04/03 04:39:43;;;;;;;5.90;4.30;;;;;;;;;;4955637;28;20281;-80
2022/04/03 04:42:09;;;;;;;10.30;3.97;;;;;;;;;;4955013;28;20226;-78
2022/04/03 04:44:35;;;;;;;4.68;3.67;;;;;;;;;;4955258;28;20198;-77
2022/04/03 04:47:01;;;;;;;7.50;4.27;;;;;;;;;;4955633;28;20191;-78
2022/04/03 04:49:27;;;;;;;5.45;4.35;;;;;;;;;;4955333;28;20409;-76
2022/04/03 04:51:53;;;;;;;6.28;4.00;;;;;;;;;;4954926;28;20282;-78
2022/04/03 04:54:19;;;;;;;7.50;4.67;;;;;;;;;;4954130;28;20183;-75
2022/04/03 04:56:45;;;;;;;10.70;4.10;;;;;;;;;;4955360;28;20422;-78
2022/04/03 04:59:11;;;;;;;4.72;4.05;;;;;;;;;;4955004;28;20445;-78
2022/04/03 05:01:37;;;;;;;4.70;3.87;;;;;;;;;;4954911;28;20205;-78
2022/04/03 05:04:04;;;;;;;6.63;4.00;;;;;;;;;;4955101;28;20552;-77
2022/04/03 05:06:31;;;;;;;6.88;4.47;;;;;;;;;;4955251;28;20176;-79
2022/04/03 05:08:57;;;;;;;5.70;4.13;;;;;;;;;;4955047;28;20605;-79
2022/04/03 05:11:23;;;;;;;6.15;4.35;;;;;;;;;;4954868;28;20210;-76
2022/04/03 05:13:50;;;;;;;7.20;3.83;;;;;;;;;;4955164;28;20182;-78
2022/04/03 05:16:16;;;;;;;4.95;3.83;;;;;;;;;;4954982;28;20193;-76
2022/04/03 05:18:42;;;;;;;5.55;3.50;;;;;;;;;;4955014;28;20187;-78
2022/04/03 05:21:10;;;;;;;7.70;3.72;;;;;;;;;;4954558;28;20197;-76
2022/04/03 05:23:36;;;;;;;3.78;3.00;;;;;;;;;;4955086;28;20183;-75
2022/04/03 05:26:02;;;;;;;5.35;3.90;;;;;;;;;;4955038;28;20180;-78
2022/04/03 05:28:28;;;;;;;5.72;4.30;;;;;;;;;;4969832;28;20647;-81
2022/04/03 05:30:54;;;;;;;6.03;3.90;;;;;;;;;;4954415;28;20252;-79
2022/04/03 05:33:20;;;;;;;7.82;3.95;;;;;;;;;;4969567;28;20453;-78
2022/04/03 05:35:46;;;;;;;7.90;4.20;;;;;;;;;;4954857;28;20215;-80
2022/04/03 05:38:12;;;;;;;4.80;3.77;;;;;;;;;;4954910;28;20418;-77
2022/04/03 05:40:38;;;;;;;6.22;3.88;;;;;;;;;;4954467;28;20480;-77
2022/04/03 05:43:04;;;;;;;7.25;3.83;;;;;;;;;;4954704;28;20647;-80
2022/04/03 05:45:30;;;;;;;8.77;3.90;;;;;;;;;;4954711;28;20228;-77
2022/04/03 05:47:56;;;;;;;7.45;4.28;;;;;;;;;;4954840;28;20209;-77
2022/04/03 05:50:23;;;;;;;7.32;4.30;;;;;;;;;;4954575;28;20174;-77
2022/04/03 05:52:50;;;;;;;6.55;3.67;;;;;;;;;;4954671;28;20686;-78
2022/04/03 05:55:17;;;;;;;10.18;4.20;;;;;;;;;;4954718;28;20200;-80
2022/04/03 05:57:43;;;;;;;4.95;4.05;;;;;;;;;;4954680;28;20179;-78
2022/04/03 06:00:13;;;;;;;6.35;3.30;;;;;;;;;;4969507;28;20203;-77
2022/04/03 06:02:42;;;;;;;5.85;3.72;;;;;;;;;;4954719;28;20212;-76
2022/04/03 06:05:08;;;;;;;9.05;3.80;;;;;;;;;;4954594;28;20302;-80
2022/04/03 06:07:34;;;;;;;10.52;4.10;;;;;;;;;;4954616;28;20192;-79
2022/04/03 06:10:00;;;;;;;6.83;3.90;;;;;;;;;;4954623;28;20556;-80
2022/04/03 06:12:26;;;;;;;7.43;4.60;;;;;;;;;;4954130;28;20529;-77
2022/04/03 06:14:52;;;;;;;8.20;4.32;;;;;;;;;;4956250;28;20419;-79
2022/04/03 06:17:18;;;;;;;7.00;3.80;;;;;;;;;;4957992;28;20192;-76
2022/04/03 06:19:44;;;;;;;10.33;4.10;;;;;;;;;;4957922;28;20427;-80
2022/04/03 06:22:10;;;;;;;6.27;4.30;;;;;;;;;;4972511;28;20535;-79
2022/04/03 06:24:36;;;;;;;6.47;4.53;;;;;;;;;;4956706;29;20463;-78
2022/04/03 06:27:02;;;;;;;6.45;3.85;;;;;;;;;;4957763;28;20180;-76
2022/04/03 06:29:28;;;;;;;5.10;3.65;;;;;;;;;;4957719;28;20584;-75
2022/04/03 06:31:54;;;;;;;5.75;3.50;;;;;;;;;;4957257;28;20275;-79
2022/04/03 06:34:20;;;;;;;5.33;3.80;;;;;;;;;;4957660;28;20612;-79
2022/04/03 06:36:46;;;;;;;5.82;4.30;;;;;;;;;;4972451;28;20836;-77
2022/04/03 06:39:12;;;;;;;7.90;3.60;;;;;;;;;;4957550;28;20221;-75
2022/04/03 06:41:38;;;;;;;7.17;4.40;;;;;;;;;;4956946;28;20504;-76
2022/04/03 06:44:05;;;;;;;4.03;3.50;;;;;;;;;;4957673;28;20889;-80
2022/04/03 06:46:31;;;;;;;6.63;4.10;;;;;;;;;;4956341;28;20182;-79
2022/04/03 06:48:57;;;;;;;5.03;3.70;;;;;;;;;;4956398;28;20186;-77
2022/04/03 06:51:23;;;;;;;6.15;3.83;;;;;;;;;;4956955;28;20455;-78
2022/04/03 06:53:49;;;;;;;5.22;4.72;;;;;;;;;;4957236;28;20177;-79
2022/04/03 06:56:15;;;;;;;12.33;4.70;;;;;;;;;;4957282;28;20192;-77
2022/04/03 06:58:41;;;;;;;8.35;5.05;;;;;;;;;;4957232;28;20415;-75
2022/04/03 07:01:07;;;;;;;11.20;4.57;;;;;;;;;;4955892;29;20543;-80
2022/04/03 07:03:33;;;;;;;9.38;4.53;;;;;;;;;;4957344;28;20428;-78
2022/04/03 07:05:59;;;;;;;6.45;4.13;;;;;;;;;;4957143;28;20180;-77
2022/04/03 07:08:25;;;;;;;5.40;3.72;;;;;;;;;;4972046;28;20269;-78
2022/04/03 07:10:51;;;;;;;5.22;4.00;;;;;;;;;;4956781;28;20267;-80
2022/04/03 07:13:18;;;;;;;7.67;4.23;;;;;;;;;;4957055;28;20718;-78
2022/04/03 07:15:44;;;;;;;5.90;5.03;;;;;;;;;;4971771;28;20946;-77
2022/04/03 07:18:10;;;;;;;13.83;5.23;;;;;;;;;;4956820;28;20194;-78
2022/04/03 07:20:36;;;;;;;13.57;4.80;;;;;;;;;;4956447;28;20419;-80
2022/04/03 07:23:02;;;;;;;5.53;4.35;;;;;;;;;;4956785;28;20546;-76
2022/04/03 07:25:28;;;;;;;13.03;4.20;;;;;;;;;;4956042;28;20265;-78
2022/04/03 07:27:54;;;;;;;7.10;5.10;;;;;;;;;;4956429;28;20406;-77
2022/04/03 07:30:20;;;;;;;11.90;4.60;;;;;;;;;;4956413;28;20571;-78
2022/04/03 07:32:46;;;;;;;14.93;6.50;;;;;;;;;;4956610;28;20461;-78
2022/04/03 07:35:13;;;;;;;17.90;8.50;;;;;;;;;;4956954;28;20430;-78
2022/04/03 07:37:39;;;;;;;10.00;5.95;;;;;;;;;;4956385;28;20410;-78
2022/04/03 07:40:06;;;;;;;6.57;4.40;;;;;;;;;;4956147;28;20698;-78
2022/04/03 07:42:32;;;;;;;12.75;4.60;;;;;;;;;;4956043;28;20747;-78
2022/04/03 07:44:58;;;;;;;7.22;4.03;;;;;;;;;;4971138;28;20344;-76
2022/04/03 07:47:25;;;;;;;11.53;4.20;;;;;;;;;;4955271;28;20258;-79
2022/04/03 07:49:51;;;;;;;6.30;4.47;;;;;;;;;;4956278;28;20504;-77
2022/04/03 07:52:17;;;;;;;8.67;3.70;;;;;;;;;;4955660;28;20718;-79
2022/04/03 07:54:43;;;;;;;8.95;4.97;;;;;;;;;;4956144;28;20444;-79
2022/04/03 07:57:10;;;;;;;7.47;4.10;;;;;;;;;;4955167;29;20205;-78
2022/04/03 07:59:36;;;;;;;6.82;4.80;;;;;;;;;;4956319;28;20539;-75
2022/04/03 08:02:02;;;;;;;6.07;4.30;;;;;;;;;;4955664;28;20207;-78
2022/04/03 08:04:29;;;;;;;9.73;5.10;;;;;;;;;;4955944;28;20464;-77
2022/04/03 08:06:55;;;;;;;7.30;4.32;;;;;;;;;;4955974;28;20260;-77
2022/04/03 08:09:21;;;;;;;6.40;4.13;;;;;;;;;;4955751;28;20616;-77
2022/04/03 08:11:47;;;;;;;7.85;4.65;;;;;;;;;;4955582;28;20970;-78
2022/04/03 08:14:13;;;;;;;6.30;4.47;;;;;;;;;;4955768;28;20179;-77
2022/04/03 08:16:39;;;;;;;8.30;3.90;;;;;;;;;;4956003;28;20194;-76
2022/04/03 08:19:06;;;;;;;7.53;5.27;;;;;;;;;;4955832;28;20457;-77
2022/04/03 08:21:32;;;;;;;6.65;4.25;;;;;;;;;;4955242;28;20444;-79
2022/04/03 08:23:59;;;;;;;8.90;5.00;;;;;;;;;;4955590;28;20205;-80
2022/04/03 08:26:27;;;;;;;7.05;5.53;;;;;;;;;;4955567;28;20177;-79
2022/04/03 08:28:54;;;;;;;6.10;4.40;;;;;;;;;;4955705;28;20184;-80
2022/04/03 08:31:20;;;;;;;6.15;4.30;;;;;;;;;;4955214;28;20262;-80
2022/04/03 08:33:47;;;;;;;7.72;4.40;;;;;;;;;;4955600;28;20172;-78
2022/04/03 08:36:14;;;;;;;6.88;4.20;;;;;;;;;;4955355;28;20188;-79
2022/04/03 08:38:39;;;;;;;5.50;4.15;;;;;;;;;;4954935;28;20190;-80
2022/04/03 08:41:06;;;;;;;13.30;4.30;;;;;;;;;;4955022;28;20206;-78
2022/04/03 08:43:32;;;;;;;9.50;4.70;;;;;;;;;;4955309;28;20834;-77
2022/04/03 08:45:58;;;;;;;7.22;3.80;;;;;;;;;;4955368;28;20185;-79
2022/04/03 08:48:26;;;;;;;10.18;4.15;;;;;;;;;;4970269;28;20178;-78
2022/04/03 08:50:52;;;;;;;4.70;3.50;;;;;;;;;;4954914;28;20587;-77
2022/04/03 08:53:21;;;;;;;4.30;3.67;;;;;;;;;;4955145;28;20200;-79
2022/04/03 08:55:47;;;;;;;8.02;4.55;;;;;;;;;;4955301;28;20186;-77
2022/04/03 08:58:13;;;;;;;7.57;3.73;;;;;;;;;;4955057;28;20183;-76
2022/04/03 09:00:39;;;;;;;7.15;3.97;;;;;;;;;;4954518;28;20960;-80
2022/04/03 09:03:06;;;;;;;6.73;4.90;;;;;;;;;;4955238;28;20196;-75
2022/04/03 09:05:39;;;;;;;7.65;4.75;;;;;;;;;;4954839;28;20465;-76
2022/04/03 09:08:05;;;;;;;6.85;4.10;;;;;;;;;;4955013;28;20182;-78
2022/04/03 09:10:31;;;;;;;8.82;3.95;;;;;;;;;;4969526;28;20722;-78
2022/04/03 09:12:57;;;;;;;9.20;4.15;;;;;;;;;;4955128;28;20178;-78
2022/04/03 09:15:24;;;;;;;4.53;3.70;;;;;;;;;;4955189;28;20299;-78
2022/04/03 09:18:03;;;;;;;5.55;2.83;;;;;;;;;;4955062;28;20181;-76
2022/04/03 09:20:30;;;;;;;7.72;3.60;;;;;;;;;;4954716;28;20210;-77
2022/04/03 09:23:03;;;;;;;8.35;3.17;;;;;;;;;;4954687;28;20196;-80
2022/04/03 09:25:30;;;;;;;5.13;4.00;;;;;;;;;;4954957;28;20217;-77
2022/04/03 09:27:58;;;;;;;4.10;3.10;;;;;;;;;;4954884;28;20525;-77
2022/04/03 09:30:27;;;;;;;7.03;3.67;;;;;;;;;;4954593;28;20178;-79
2022/04/03 09:32:57;;;;;;;4.38;3.63;;;;;;;;;;4954680;28;20306;-78
2022/04/03 09:35:26;;;;;;;9.27;3.92;;;;;;;;;;4955045;28;20648;-77
2022/04/03 09:38:09;;;;;;;4.82;3.60;;;;;;;;;;4969546;28;20190;-77
2022/04/03 09:40:36;;;;;;;4.43;3.10;;;;;;;;;;4954375;28;20188;-79
2022/04/03 09:43:15;;;;;;;4.22;2.72;;;;;;;;;;4954556;28;20187;-75
2022/04/03 09:45:50;;;;;;;4.28;3.30;;;;;;;;;;4954939;28;20197;-76
2022/04/03 09:48:24;;;;;;;5.10;3.47;;;;;;;;;;4954727;28;20609;-76
2022/04/03 09:51:03;;;;;;;4.82;3.92;;;;;;;;;;4957444;28;20175;-77
2022/04/03 09:53:51;;;;;;;6.85;4.72;;;;;;;;;;4958511;28;20264;-78
2022/04/03 09:56:31;;;;;;;7.32;4.80;;;;;;;;;;4958512;28;20515;-77
2022/04/03 09:58:57;;;;;;;6.38;4.30;;;;;;;;;;4958215;28;20204;-80
2022/04/03 10:01:24;;;;;;;7.10;4.27;;;;;;;;;;4957865;28;20225;-78
2022/04/03 10:03:51;;;;;;;5.07;3.47;;;;;;;;;;4958220;28;20460;-76
2022/04/03 10:06:18;;;;;;;5.25;3.20;;;;;;;;;;4958236;28;20173;-75
2022/04/03 10:08:45;;;;;;;6.20;2.72;;;;;;;;;;4973001;28;20216;-76
2022/04/03 10:11:11;;;;;;;4.05;2.08;;;;;;;;;;4957363;28;20597;-77
2022/04/03 10:13:38;;;;;;;3.83;3.10;;;;;;;;;;4972965;28;20659;-76
2022/04/03 10:16:05;;;;;;;4.63;2.88;;;;;;;;;;4958053;28;20655;-79
2022/04/03 10:18:33;;;;;;;3.85;3.05;;;;;;;;;;4957971;28;20173;-78
2022/04/03 10:20:59;;;;;;;3.33;2.20;;;;;;;;;;4956293;28;20233;-76
2022/04/03 10:23:25;;;;;;;4.95;2.33;;;;;;;;;;4957901;28;20185;-76
2022/04/03 10:25:53;;;;;;;2.67;2.20;;;;;;;;;;4957964;28;20301;-76
2022/04/03 10:28:20;;;;;;;4.78;2.30;;;;;;;;;;4957833;28;20253;-76
2022/04/03 10:30:46;;;;;;;6.53;2.30;;;;;;;;;;4957339;28;20171;-77
2022/04/03 10:33:19;;;;;;;5.80;2.33;;;;;;;;;;4957671;28;20418;-78
2022/04/03 10:35:49;;;;;;;2.38;2.13;;;;;;;;;;4957574;28;20429;-79
2022/04/03 10:38:15;;;;;;;3.75;2.38;;;;;;;;;;4957727;28;20231;-78
2022/04/03 10:40:55;;;;;;;4.25;2.28;;;;;;;;;;4957182;28;20182;-77
2022/04/03 10:43:29;;;;;;;4.75;2.10;;;;;;;;;;4957419;28;20181;-77
2022/04/03 10:45:55;;;;;;;3.22;2.50;;;;;;;;;;4957436;28;20219;-77
2022/04/03 10:48:21;;;;;;;3.80;2.40;;;;;;;;;;4957386;28;20186;-80
2022/04/03 10:51:02;;;;;;;2.17;1.90;;;;;;;;;;4956604;28;20178;-74
2022/04/03 10:53:31;;;;;;;2.97;2.00;;;;;;;;;;4956070;29;20410;-77
2022/04/03 10:55:57;;;;;;;2.70;2.15;;;;;;;;;;4954986;29;20175;-78
2022/04/03 10:58:24;;;;;;;2.87;2.20;;;;;;;;;;4957255;28;20182;-76
2022/04/03 11:00:50;;;;;;;4.67;2.43;;;;;;;;;;4971560;28;20410;-76
2022/04/03 11:03:19;;;;;;;2.97;2.53;;;;;;;;;;4957173;28;20418;-76
2022/04/03 11:05:46;;;;;;;3.03;2.30;;;;;;;;;;4956877;28;20466;-79
2022/04/03 11:08:12;;;;;;;2.83;2.43;;;;;;;;;;4940140;29;20943;-77
2022/04/03 11:10:49;;;;;;;3.10;2.40;;;;;;;;;;4956544;28;20419;-77
2022/04/03 11:13:15;;;;;;;3.97;2.47;;;;;;;;;;4956988;28;20417;-77
2022/04/03 11:15:51;;;;;;;3.90;2.57;;;;;;;;;;4971653;28;20422;-78
2022/04/03 11:18:27;;;;;;;3.20;2.90;;;;;;;;;;4956802;28;20421;-78
2022/04/03 11:21:12;;;;;;;6.03;2.70;;;;;;;;;;4956488;28;20208;-78
2022/04/03 11:23:59;;;;;;;6.03;2.67;;;;;;;;;;4971490;28;20717;-79
2022/04/03 11:26:25;;;;;;;4.10;3.20;;;;;;;;;;4956593;28;20195;-77
2022/04/03 11:28:51;;;;;;;2.92;2.63;;;;;;;;;;4956676;28;20216;-79
2022/04/03 11:31:17;;;;;;;2.70;2.17;;;;;;;;;;4956125;28;20197;-77
2022/04/03 11:33:43;;;;;;;3.72;2.38;;;;;;;;;;4956515;28;20266;-80
2022/04/03 11:36:11;;;;;;;3.95;2.40;;;;;;;;;;4956567;28;20213;-77
2022/04/03 11:38:38;;;;;;;2.95;2.35;;;;;;;;;;4956489;28;20174;-77
2022/04/03 11:41:10;;;;;;;7.85;3.33;;;;;;;;;;4970916;28;20728;-79
2022/04/03 11:43:39;;;;;;;4.07;2.80;;;;;;;;;;4956107;28;20537;-79
2022/04/03 11:46:07;;;;;;;3.85;3.05;;;;;;;;;;4956171;28;20188;-77
2022/04/03 11:48:34;;;;;;;3.05;2.13;;;;;;;;;;4956305;28;20175;-75
2022/04/03 11:51:13;;;;;;;3.30;3.00;;;;;;;;;;4955601;28;20194;-80
2022/04/03 11:53:40;;;;;;;4.30;3.58;;;;;;;;;;4953675;28;20584;-79
2022/04/03 11:56:14;;;;;;;3.80;3.00;;;;;;;;;;4970621;28;20191;-78
2022/04/03 11:58:48;;;;;;;2.95;2.30;;;;;;;;;;4956187;28;20534;-78
2022/04/03 12:01:14;;;;;;;4.10;2.70;;;;;;;;;;4955285;28;20566;-77
2022/04/03 12:03:40;;;;;;;4.00;2.50;;;;;;;;;;4970388;28;20913;-76
2022/04/03 12:06:10;;;;;;;3.43;2.13;;;;;;;;;;4955785;28;20430;-78
2022/04/03 12:08:39;;;;;;;3.00;1.70;;;;;;;;;;4955962;28;20423;-77
2022/04/03 12:11:24;;;;;;;4.30;2.80;;;;;;;;;;4970298;28;20949;-77
2022/04/03 12:13:54;;;;;;;2.85;2.45;;;;;;;;;;4955658;28;20940;-78
2022/04/03 12:16:22;;;;;;;2.33;2.10;;;;;;;;;;4955849;28;20174;-78
2022/04/03 12:18:49;;;;;;;2.70;2.30;;;;;;;;;;4955856;28;20196;-77
2022/04/03 12:21:15;;;;;;;3.00;2.37;;;;;;;;;;4955349;28;20459;-76
2022/04/03 12:23:59;;;;;;;2.23;2.03;;;;;;;;;;4955829;28;20476;-76
2022/04/03 12:26:26;;;;;;;2.70;2.10;;;;;;;;;;4969665;28;20484;-77
2022/04/03 12:28:52;;;;;;;2.60;1.63;;;;;;;;;;4955622;28;20407;-77
2022/04/03 12:31:17;;;;;;;2.83;1.70;;;;;;;;;;4955259;28;20494;-76
2022/04/03 12:33:43;;;;;;;2.87;2.37;;;;;;;;;;4955654;28;20416;-77
2022/04/03 12:36:10;;;;;;;4.30;2.20;;;;;;;;;;4955548;28;20409;-75
2022/04/03 12:38:36;;;;;;;3.10;2.27;;;;;;;;;;4955592;28;20405;-77
2022/04/03 12:41:03;;;;;;;4.43;1.73;;;;;;;;;;4955042;28;20455;-76
2022/04/03 12:43:42;;;;;;;3.00;2.00;;;;;;;;;;4955282;28;20405;-77
2022/04/03 12:46:08;;;;;;;1.70;1.60;;;;;;;;;;4936130;29;20913;-75
2022/04/03 12:48:34;;;;;;;4.07;2.13;;;;;;;;;;4936122;29;20407;-79
2022/04/03 12:51:07;;;;;;;3.07;1.80;;;;;;;;;;4935741;29;20456;-76
2022/04/03 12:53:33;;;;;;;2.60;1.80;;;;;;;;;;4936419;29;20421;-76
2022/04/03 12:56:04;;;;;;;3.00;1.80;;;;;;;;;;4936092;29;20778;-76
2022/04/03 12:58:40;;;;;;;5.30;2.83;;;;;;;;;;4935894;29;20450;-78
2022/04/03 13:01:09;;;;;;;8.90;7.97;;;;;;;;;;4935859;29;20195;-77
2022/04/03 13:03:39;;;;;;;6.90;6.23;;;;;;;;;;4936563;29;20247;-79
2022/04/03 13:06:14;;;;;;;3.00;2.60;;;;;;;;;;4936015;29;20523;-76
2022/04/03 13:08:53;;;;;;;2.13;1.90;;;;;;;;;;4935947;29;20439;-77
2022/04/03 13:11:29;;;;;;;3.83;3.23;;;;;;;;;;4950251;28;20529;-78
2022/04/03 13:13:55;;;;;;;2.73;2.03;;;;;;;;;;4947027;28;20411;-79
2022/04/03 13:16:21;;;;;;;8.17;5.60;;;;;;;;;;4964860;28;20443;-79
2022/04/03 13:18:48;;;;;;;3.37;2.10;;;;;;;;;;4969722;28;20455;-78
2022/04/03 13:21:21;;;;;;;4.73;3.47;;;;;;;;;;4944965;28;20440;-75
2022/04/03 13:23:47;;;;;;;3.03;2.10;;;;;;;;;;4937516;29;20402;-76
2022/04/03 13:26:13;;;;;;;3.70;2.40;;;;;;;;;;4939848;29;20471;-78
2022/04/03 13:28:39;;;;;;;2.47;2.03;;;;;;;;;;4939575;29;20466;-79
2022/04/03 13:31:05;;;;;;;1.70;1.50;;;;;;;;;;4939358;29;20440;-77
2022/04/03 13:33:31;;;;;;;3.57;3.00;;;;;;;;;;4939653;29;20773;-79
2022/04/03 13:35:57;;;;;;;2.77;2.30;;;;;;;;;;4939674;29;20420;-79
2022/04/03 13:38:22;;;;;;;5.67;2.10;;;;;;;;;;4939458;29;20429;-77
2022/04/03 13:40:49;;;;;;;4.27;1.70;;;;;;;;;;4937838;29;20434;-79
2022/04/03 13:43:15;;;;;;;3.20;2.30;;;;;;;;;;4965487;28;20438;-76
2022/04/03 13:45:56;;;;;;;2.23;2.03;;;;;;;;;;4943537;28;20625;-76
2022/04/03 13:48:24;;;;;;;2.30;1.67;;;;;;;;;;4958167;28;20794;-78
2022/04/03 13:50:50;;;;;;;2.50;1.70;;;;;;;;;;4957897;28;20739;-78
2022/04/03 13:53:16;;;;;;;4.00;1.85;;;;;;;;;;4958344;28;20549;-77
2022/04/03 13:55:42;;;;;;;3.33;1.90;;;;;;;;;;4989497;28;20222;-75
2022/04/03 13:58:08;;;;;;;3.47;1.43;;;;;;;;;;4957703;28;20421;-78
2022/04/03 14:00:34;;;;;;;7.93;4.93;;;;;;;;;;4957524;28;20535;-77
2022/04/03 14:03:00;;;;;;;3.65;3.17;;;;;;;;;;4958146;28;20431;-77
2022/04/03 14:05:26;;;;;;;2.08;1.88;;;;;;;;;;4958193;28;20299;-77
2022/04/03 14:07:52;;;;;;;2.83;1.83;;;;;;;;;;4958150;28;20258;-76
2022/04/03 14:10:18;;;;;;;3.77;2.40;;;;;;;;;;4971634;28;20438;-77
2022/04/03 14:12:44;;;;;;;2.40;1.50;;;;;;;;;;4958195;28;20576;-78
2022/04/03 14:15:10;;;;;;;3.13;1.63;;;;;;;;;;4958129;28;20206;-75
2022/04/03 14:17:36;;;;;;;2.38;1.48;;;;;;;;;;4957792;28;20448;-77
2022/04/03 14:20:03;;;;;;;2.10;1.23;;;;;;;;;;4957988;28;20266;-76
2022/04/03 14:22:29;;;;;;;3.15;1.50;;;;;;;;;;4973958;28;20761;-76
2022/04/03 14:24:56;;;;;;;3.50;1.33;;;;;;;;;;4957624;28;20305;-76
2022/04/03 14:27:22;;;;;;;1.98;1.40;;;;;;;;;;4957597;28;20485;-78
2022/04/03 14:29:48;;;;;;;2.03;1.00;;;;;;;;;;4957545;28;20574;-77
2022/04/03 14:32:14;;;;;;;1.60;1.43;;;;;;;;;;4957200;28;20212;-76
2022/04/03 14:34:40;;;;;;;1.97;1.40;;;;;;;;;;4956951;28;20997;-77
2022/04/03 14:37:06;;;;;;;2.78;1.55;;;;;;;;;;4957428;28;20420;-78
2022/04/03 14:39:32;;;;;;;1.70;1.50;;;;;;;;;;4957580;28;20591;-79
2022/04/03 14:41:58;;;;;;;2.23;1.40;;;;;;;;;;4957134;28;20202;-77
2022/04/03 14:44:24;;;;;;;3.10;1.87;;;;;;;;;;4957417;28;20460;-77